sensor_id;sensor_type;location;lat;lon;timestamp;P1;durP1;ratioP1;P2;durP2;ratioP2
3911;SDS011;1971;51.778;10.330;2023-12-22T00:02:03;11.70;;;4.23;;
3911;SDS011;1971;51.778;10.330;2023-12-22T00:04:34;8.27;;;3.20;;
3911;SDS011;1971;51.778;10.330;2023-12-22T00:07:07;12.67;;;4.30;;
3911;SDS011;1971;51.778;10.330;2023-12-22T00:09:37;13.30;;;4.10;;
3911;SDS011;1971;51.778;10.330;2023-12-22T00:12:08;10.30;;;3.97;;
3911;SDS011;1971;51.778;10.330;2023-12-22T00:14:38;12.13;;;4.10;;
3911;SDS011;1971;51.778;10.330;2023-12-22T00:17:08;16.23;;;6.90;;
3911;SDS011;1971;51.778;10.330;2023-12-22T00:19:38;11.63;;;4.50;;
3911;SDS011;1971;51.778;10.330;2023-12-22T00:22:11;12.20;;;4.40;;
3911;SDS011;1971;51.778;10.330;2023-12-22T00:24:41;9.40;;;5.07;;
3911;SDS011;1971;51.778;10.330;2023-12-22T00:27:11;10.63;;;3.50;;
3911;SDS011;1971;51.778;10.330;2023-12-22T00:29:41;13.70;;;3.90;;
3911;SDS011;1971;51.778;10.330;2023-12-22T00:32:12;11.20;;;3.50;;
3911;SDS011;1971;51.778;10.330;2023-12-22T00:34:42;5.67;;;2.20;;
3911;SDS011;1971;51.778;10.330;2023-12-22T00:37:14;14.43;;;4.73;;
3911;SDS011;1971;51.778;10.330;2023-12-22T00:39:45;14.03;;;4.33;;
3911;SDS011;1971;51.778;10.330;2023-12-22T00:42:15;17.57;;;5.37;;
3911;SDS011;1971;51.778;10.330;2023-12-22T00:44:45;12.77;;;3.50;;
3911;SDS011;1971;51.778;10.330;2023-12-22T00:47:15;9.30;;;3.13;;
3911;SDS011;1971;51.778;10.330;2023-12-22T00:49:45;9.30;;;2.77;;
3911;SDS011;1971;51.778;10.330;2023-12-22T00:52:17;10.80;;;2.90;;
3911;SDS011;1971;51.778;10.330;2023-12-22T00:54:48;15.73;;;4.80;;
3911;SDS011;1971;51.778;10.330;2023-12-22T00:57:18;10.13;;;3.70;;
3911;SDS011;1971;51.778;10.330;2023-12-22T00:59:48;9.67;;;3.27;;
3911;SDS011;1971;51.778;10.330;2023-12-22T01:02:18;13.13;;;4.13;;
3911;SDS011;1971;51.778;10.330;2023-12-22T01:04:48;12.50;;;4.10;;
3911;SDS011;1971;51.778;10.330;2023-12-22T01:07:21;13.93;;;4.77;;
3911;SDS011;1971;51.778;10.330;2023-12-22T01:09:52;7.50;;;2.30;;
3911;SDS011;1971;51.778;10.330;2023-12-22T01:12:23;6.40;;;2.30;;
3911;SDS011;1971;51.778;10.330;2023-12-22T01:14:53;6.90;;;3.87;;
3911;SDS011;1971;51.778;10.330;2023-12-22T01:17:23;11.33;;;2.47;;
3911;SDS011;1971;51.778;10.330;2023-12-22T01:19:53;4.13;;;2.10;;
3911;SDS011;1971;51.778;10.330;2023-12-22T01:22:26;7.03;;;2.40;;
3911;SDS011;1971;51.778;10.330;2023-12-22T01:24:57;9.00;;;2.83;;
3911;SDS011;1971;51.778;10.330;2023-12-22T01:27:28;9.90;;;3.00;;
3911;SDS011;1971;51.778;10.330;2023-12-22T01:29:58;7.00;;;2.63;;
3911;SDS011;1971;51.778;10.330;2023-12-22T01:32:28;9.60;;;3.50;;
3911;SDS011;1971;51.778;10.330;2023-12-22T01:35:01;12.43;;;3.40;;
3911;SDS011;1971;51.778;10.330;2023-12-22T01:37:39;8.80;;;4.30;;
3911;SDS011;1971;51.778;10.330;2023-12-22T01:40:26;9.20;;;3.20;;
3911;SDS011;1971;51.778;10.330;2023-12-22T01:42:56;8.63;;;3.07;;
3911;SDS011;1971;51.778;10.330;2023-12-22T01:45:26;7.43;;;2.03;;
3911;SDS011;1971;51.778;10.330;2023-12-22T01:47:56;10.40;;;3.23;;
3911;SDS011;1971;51.778;10.330;2023-12-22T01:50:27;5.03;;;1.90;;
3911;SDS011;1971;51.778;10.330;2023-12-22T01:53:00;7.43;;;2.10;;
3911;SDS011;1971;51.778;10.330;2023-12-22T01:55:30;5.10;;;1.70;;
3911;SDS011;1971;51.778;10.330;2023-12-22T01:58:00;5.67;;;1.90;;
3911;SDS011;1971;51.778;10.330;2023-12-22T02:00:30;6.60;;;1.83;;
3911;SDS011;1971;51.778;10.330;2023-12-22T02:03:00;11.10;;;1.73;;
3911;SDS011;1971;51.778;10.330;2023-12-22T02:05:31;6.40;;;1.87;;
3911;SDS011;1971;51.778;10.330;2023-12-22T02:08:04;4.97;;;1.73;;
3911;SDS011;1971;51.778;10.330;2023-12-22T02:10:35;1.77;;;0.90;;
3911;SDS011;1971;51.778;10.330;2023-12-22T02:13:06;2.63;;;1.13;;
3911;SDS011;1971;51.778;10.330;2023-12-22T02:15:37;0.87;;;0.60;;
3911;SDS011;1971;51.778;10.330;2023-12-22T02:18:09;2.20;;;0.97;;
3911;SDS011;1971;51.778;10.330;2023-12-22T02:20:42;4.00;;;1.27;;
3911;SDS011;1971;51.778;10.330;2023-12-22T02:23:14;5.13;;;1.10;;
3911;SDS011;1971;51.778;10.330;2023-12-22T02:25:45;1.70;;;0.83;;
3911;SDS011;1971;51.778;10.330;2023-12-22T02:28:16;3.73;;;1.00;;
3911;SDS011;1971;51.778;10.330;2023-12-22T02:30:51;3.23;;;1.87;;
3911;SDS011;1971;51.778;10.330;2023-12-22T02:33:26;3.50;;;1.60;;
3911;SDS011;1971;51.778;10.330;2023-12-22T02:35:59;2.20;;;1.20;;
3911;SDS011;1971;51.778;10.330;2023-12-22T02:38:35;3.97;;;1.80;;
3911;SDS011;1971;51.778;10.330;2023-12-22T02:41:06;4.23;;;1.30;;
3911;SDS011;1971;51.778;10.330;2023-12-22T02:43:38;3.17;;;1.63;;
3911;SDS011;1971;51.778;10.330;2023-12-22T02:46:12;3.60;;;1.70;;
3911;SDS011;1971;51.778;10.330;2023-12-22T02:48:43;4.70;;;2.23;;
3911;SDS011;1971;51.778;10.330;2023-12-22T02:51:13;2.53;;;1.07;;
3911;SDS011;1971;51.778;10.330;2023-12-22T02:53:46;5.30;;;1.40;;
3911;SDS011;1971;51.778;10.330;2023-12-22T02:56:16;2.20;;;1.23;;
3911;SDS011;1971;51.778;10.330;2023-12-22T02:58:46;5.00;;;2.47;;
3911;SDS011;1971;51.778;10.330;2023-12-22T03:01:16;7.57;;;1.73;;
3911;SDS011;1971;51.778;10.330;2023-12-22T03:03:47;5.17;;;1.20;;
3911;SDS011;1971;51.778;10.330;2023-12-22T03:06:17;5.43;;;2.20;;
3911;SDS011;1971;51.778;10.330;2023-12-22T03:08:49;4.47;;;2.70;;
3911;SDS011;1971;51.778;10.330;2023-12-22T03:11:20;4.30;;;1.80;;
3911;SDS011;1971;51.778;10.330;2023-12-22T03:13:51;3.20;;;1.50;;
3911;SDS011;1971;51.778;10.330;2023-12-22T03:16:21;8.17;;;2.20;;
3911;SDS011;1971;51.778;10.330;2023-12-22T03:18:52;3.90;;;1.40;;
3911;SDS011;1971;51.778;10.330;2023-12-22T03:21:22;7.90;;;1.73;;
3911;SDS011;1971;51.778;10.330;2023-12-22T03:23:57;3.70;;;2.20;;
3911;SDS011;1971;51.778;10.330;2023-12-22T03:26:27;9.97;;;2.30;;
3911;SDS011;1971;51.778;10.330;2023-12-22T03:28:57;3.20;;;1.80;;
3911;SDS011;1971;51.778;10.330;2023-12-22T03:31:27;9.23;;;2.47;;
3911;SDS011;1971;51.778;10.330;2023-12-22T03:33:57;3.20;;;1.23;;
3911;SDS011;1971;51.778;10.330;2023-12-22T03:36:27;7.27;;;1.67;;
3911;SDS011;1971;51.778;10.330;2023-12-22T03:39:00;8.13;;;1.50;;
3911;SDS011;1971;51.778;10.330;2023-12-22T03:41:30;8.03;;;1.67;;
3911;SDS011;1971;51.778;10.330;2023-12-22T03:44:01;3.50;;;1.30;;
3911;SDS011;1971;51.778;10.330;2023-12-22T03:46:50;3.37;;;1.40;;
3911;SDS011;1971;51.778;10.330;2023-12-22T03:49:21;2.00;;;1.20;;
3911;SDS011;1971;51.778;10.330;2023-12-22T03:51:51;6.83;;;2.20;;
3911;SDS011;1971;51.778;10.330;2023-12-22T03:54:23;6.27;;;1.60;;
3911;SDS011;1971;51.778;10.330;2023-12-22T03:56:54;5.90;;;2.00;;
3911;SDS011;1971;51.778;10.330;2023-12-22T03:59:24;2.70;;;1.40;;
3911;SDS011;1971;51.778;10.330;2023-12-22T04:01:55;3.43;;;1.70;;
3911;SDS011;1971;51.778;10.330;2023-12-22T04:04:28;6.20;;;2.90;;
3911;SDS011;1971;51.778;10.330;2023-12-22T04:06:58;9.27;;;2.50;;
3911;SDS011;1971;51.778;10.330;2023-12-22T04:09:31;6.23;;;1.47;;
3911;SDS011;1971;51.778;10.330;2023-12-22T04:12:01;4.43;;;1.87;;
3911;SDS011;1971;51.778;10.330;2023-12-22T04:14:31;9.63;;;2.43;;
3911;SDS011;1971;51.778;10.330;2023-12-22T04:17:01;7.20;;;1.87;;
3911;SDS011;1971;51.778;10.330;2023-12-22T04:19:31;6.73;;;2.13;;
3911;SDS011;1971;51.778;10.330;2023-12-22T04:22:02;5.90;;;2.37;;
3911;SDS011;1971;51.778;10.330;2023-12-22T04:24:35;6.97;;;1.90;;
3911;SDS011;1971;51.778;10.330;2023-12-22T04:27:05;4.00;;;1.83;;
3911;SDS011;1971;51.778;10.330;2023-12-22T04:29:38;4.80;;;1.47;;
3911;SDS011;1971;51.778;10.330;2023-12-22T04:32:08;3.53;;;1.00;;
3911;SDS011;1971;51.778;10.330;2023-12-22T04:34:38;2.40;;;1.37;;
3911;SDS011;1971;51.778;10.330;2023-12-22T04:37:08;4.03;;;1.87;;
3911;SDS011;1971;51.778;10.330;2023-12-22T04:40:06;5.27;;;1.77;;
3911;SDS011;1971;51.778;10.330;2023-12-22T04:42:37;4.87;;;1.40;;
3911;SDS011;1971;51.778;10.330;2023-12-22T04:45:08;6.87;;;1.70;;
3911;SDS011;1971;51.778;10.330;2023-12-22T04:47:38;16.33;;;3.27;;
3911;SDS011;1971;51.778;10.330;2023-12-22T04:50:09;7.23;;;2.00;;
3911;SDS011;1971;51.778;10.330;2023-12-22T04:52:39;2.73;;;1.60;;
3911;SDS011;1971;51.778;10.330;2023-12-22T04:55:12;12.23;;;2.20;;
3911;SDS011;1971;51.778;10.330;2023-12-22T04:57:43;9.10;;;2.30;;
3911;SDS011;1971;51.778;10.330;2023-12-22T05:00:14;3.30;;;1.93;;
3911;SDS011;1971;51.778;10.330;2023-12-22T05:06:54;12.13;;;2.60;;
3911;SDS011;1971;51.778;10.330;2023-12-22T05:22:04;3.17;;;1.43;;
3911;SDS011;1971;51.778;10.330;2023-12-22T05:25:36;4.47;;;1.43;;
3911;SDS011;1971;51.778;10.330;2023-12-22T05:29:57;4.10;;;1.40;;
3911;SDS011;1971;51.778;10.330;2023-12-22T06:56:37;1.37;;;0.97;;
3911;SDS011;1971;51.778;10.330;2023-12-22T06:59:08;0.60;;;0.40;;
3911;SDS011;1971;51.778;10.330;2023-12-22T07:01:41;2.00;;;0.40;;
3911;SDS011;1971;51.778;10.330;2023-12-22T07:04:30;0.40;;;0.40;;
3911;SDS011;1971;51.778;10.330;2023-12-22T07:07:00;2.10;;;0.70;;
3911;SDS011;1971;51.778;10.330;2023-12-22T07:09:30;1.47;;;0.60;;
3911;SDS011;1971;51.778;10.330;2023-12-22T07:12:01;1.43;;;0.60;;
3911;SDS011;1971;51.778;10.330;2023-12-22T07:14:31;2.23;;;0.90;;
3911;SDS011;1971;51.778;10.330;2023-12-22T07:17:01;1.90;;;1.20;;
3911;SDS011;1971;51.778;10.330;2023-12-22T07:19:34;5.00;;;0.83;;
3911;SDS011;1971;51.778;10.330;2023-12-22T07:22:04;3.37;;;1.40;;
3911;SDS011;1971;51.778;10.330;2023-12-22T07:24:35;3.73;;;1.27;;
3911;SDS011;1971;51.778;10.330;2023-12-22T07:27:05;3.37;;;1.43;;
3911;SDS011;1971;51.778;10.330;2023-12-22T07:29:36;1.60;;;1.13;;
3911;SDS011;1971;51.778;10.330;2023-12-22T07:32:06;4.70;;;1.47;;
3911;SDS011;1971;51.778;10.330;2023-12-22T07:34:38;7.53;;;2.50;;
3911;SDS011;1971;51.778;10.330;2023-12-22T07:37:10;3.83;;;1.17;;
3911;SDS011;1971;51.778;10.330;2023-12-22T07:39:40;1.57;;;1.27;;
3911;SDS011;1971;51.778;10.330;2023-12-22T07:42:11;10.57;;;2.53;;
3911;SDS011;1971;51.778;10.330;2023-12-22T07:44:43;4.30;;;1.47;;
3911;SDS011;1971;51.778;10.330;2023-12-22T07:47:13;2.40;;;0.90;;
3911;SDS011;1971;51.778;10.330;2023-12-22T07:49:45;3.53;;;1.10;;
3911;SDS011;1971;51.778;10.330;2023-12-22T07:52:16;7.50;;;2.00;;
3911;SDS011;1971;51.778;10.330;2023-12-22T07:54:47;5.90;;;1.33;;
3911;SDS011;1971;51.778;10.330;2023-12-22T07:57:18;5.00;;;1.70;;
3911;SDS011;1971;51.778;10.330;2023-12-22T07:59:48;5.70;;;1.47;;
3911;SDS011;1971;51.778;10.330;2023-12-22T08:02:19;3.17;;;1.73;;
3911;SDS011;1971;51.778;10.330;2023-12-22T08:04:52;8.83;;;1.73;;
3911;SDS011;1971;51.778;10.330;2023-12-22T08:07:22;3.27;;;1.50;;
3911;SDS011;1971;51.778;10.330;2023-12-22T08:09:52;5.87;;;1.70;;
3911;SDS011;1971;51.778;10.330;2023-12-22T08:12:22;3.70;;;1.57;;
3911;SDS011;1971;51.778;10.330;2023-12-22T08:14:52;7.10;;;1.73;;
3911;SDS011;1971;51.778;10.330;2023-12-22T08:17:22;3.17;;;1.33;;
3911;SDS011;1971;51.778;10.330;2023-12-22T08:19:55;7.17;;;1.83;;
3911;SDS011;1971;51.778;10.330;2023-12-22T08:22:37;6.00;;;2.27;;
3911;SDS011;1971;51.778;10.330;2023-12-22T08:25:12;3.20;;;1.80;;
3911;SDS011;1971;51.778;10.330;2023-12-22T08:27:42;3.30;;;1.80;;
3911;SDS011;1971;51.778;10.330;2023-12-22T08:30:13;7.50;;;2.13;;
3911;SDS011;1971;51.778;10.330;2023-12-22T08:32:43;3.53;;;1.63;;
3911;SDS011;1971;51.778;10.330;2023-12-22T08:35:16;8.60;;;1.80;;
3911;SDS011;1971;51.778;10.330;2023-12-22T08:37:46;3.03;;;1.50;;
3911;SDS011;1971;51.778;10.330;2023-12-22T08:40:17;10.90;;;1.83;;
3911;SDS011;1971;51.778;10.330;2023-12-22T08:42:53;4.60;;;2.50;;
3911;SDS011;1971;51.778;10.330;2023-12-22T08:45:27;2.53;;;0.97;;
3911;SDS011;1971;51.778;10.330;2023-12-22T08:47:57;4.27;;;2.23;;
3911;SDS011;1971;51.778;10.330;2023-12-22T08:50:31;6.00;;;1.97;;
3911;SDS011;1971;51.778;10.330;2023-12-22T08:53:01;5.90;;;2.20;;
3911;SDS011;1971;51.778;10.330;2023-12-22T08:55:32;8.23;;;1.93;;
3911;SDS011;1971;51.778;10.330;2023-12-22T08:58:02;4.30;;;1.77;;
3911;SDS011;1971;51.778;10.330;2023-12-22T09:00:33;3.90;;;1.63;;
3911;SDS011;1971;51.778;10.330;2023-12-22T09:03:03;4.40;;;1.60;;
3911;SDS011;1971;51.778;10.330;2023-12-22T09:05:36;4.33;;;1.60;;
3911;SDS011;1971;51.778;10.330;2023-12-22T09:08:06;5.83;;;1.43;;
3911;SDS011;1971;51.778;10.330;2023-12-22T09:10:36;5.53;;;2.00;;
3911;SDS011;1971;51.778;10.330;2023-12-22T09:13:06;2.83;;;1.97;;
3911;SDS011;1971;51.778;10.330;2023-12-22T09:15:36;6.40;;;1.70;;
3911;SDS011;1971;51.778;10.330;2023-12-22T09:18:08;6.67;;;1.90;;
3911;SDS011;1971;51.778;10.330;2023-12-22T09:20:40;4.03;;;1.63;;
3911;SDS011;1971;51.778;10.330;2023-12-22T09:23:10;4.60;;;1.77;;
3911;SDS011;1971;51.778;10.330;2023-12-22T09:25:40;3.43;;;1.53;;
3911;SDS011;1971;51.778;10.330;2023-12-22T09:28:10;5.27;;;1.97;;
3911;SDS011;1971;51.778;10.330;2023-12-22T09:30:40;4.67;;;1.43;;
3911;SDS011;1971;51.778;10.330;2023-12-22T09:33:10;4.03;;;2.27;;
3911;SDS011;1971;51.778;10.330;2023-12-22T09:35:44;3.13;;;1.60;;
3911;SDS011;1971;51.778;10.330;2023-12-22T09:38:14;2.77;;;1.10;;
3911;SDS011;1971;51.778;10.330;2023-12-22T09:40:44;6.33;;;1.50;;
3911;SDS011;1971;51.778;10.330;2023-12-22T09:43:14;10.30;;;2.07;;
3911;SDS011;1971;51.778;10.330;2023-12-22T09:45:46;5.47;;;2.17;;
3911;SDS011;1971;51.778;10.330;2023-12-22T09:48:17;4.53;;;0.97;;
3911;SDS011;1971;51.778;10.330;2023-12-22T09:50:56;7.77;;;2.57;;
3911;SDS011;1971;51.778;10.330;2023-12-22T09:53:29;4.67;;;3.17;;
3911;SDS011;1971;51.778;10.330;2023-12-22T09:56:00;8.97;;;2.30;;
3911;SDS011;1971;51.778;10.330;2023-12-22T09:58:32;8.60;;;1.50;;
3911;SDS011;1971;51.778;10.330;2023-12-22T10:01:04;4.73;;;3.30;;
3911;SDS011;1971;51.778;10.330;2023-12-22T10:03:35;3.43;;;2.20;;
3911;SDS011;1971;51.778;10.330;2023-12-22T10:06:09;3.23;;;1.40;;
3911;SDS011;1971;51.778;10.330;2023-12-22T10:08:39;4.83;;;1.67;;
3911;SDS011;1971;51.778;10.330;2023-12-22T10:11:10;3.47;;;1.70;;
3911;SDS011;1971;51.778;10.330;2023-12-22T10:13:41;7.00;;;1.70;;
3911;SDS011;1971;51.778;10.330;2023-12-22T10:16:11;6.53;;;2.80;;
3911;SDS011;1971;51.778;10.330;2023-12-22T10:18:42;4.90;;;2.57;;
3911;SDS011;1971;51.778;10.330;2023-12-22T10:21:14;4.00;;;1.80;;
3911;SDS011;1971;51.778;10.330;2023-12-22T10:23:45;5.43;;;1.83;;
3911;SDS011;1971;51.778;10.330;2023-12-22T10:26:15;8.70;;;3.17;;
3911;SDS011;1971;51.778;10.330;2023-12-22T10:28:46;6.70;;;2.30;;
3911;SDS011;1971;51.778;10.330;2023-12-22T10:31:17;7.30;;;2.90;;
3911;SDS011;1971;51.778;10.330;2023-12-22T10:33:47;8.10;;;2.77;;
3911;SDS011;1971;51.778;10.330;2023-12-22T10:36:20;10.07;;;2.90;;
3911;SDS011;1971;51.778;10.330;2023-12-22T10:38:51;4.47;;;2.60;;
3911;SDS011;1971;51.778;10.330;2023-12-22T10:41:22;6.33;;;1.70;;
3911;SDS011;1971;51.778;10.330;2023-12-22T10:43:52;6.00;;;2.33;;
3911;SDS011;1971;51.778;10.330;2023-12-22T10:46:23;6.23;;;1.97;;
3911;SDS011;1971;51.778;10.330;2023-12-22T10:48:53;1.77;;;1.50;;
3911;SDS011;1971;51.778;10.330;2023-12-22T10:51:26;9.50;;;2.10;;
3911;SDS011;1971;51.778;10.330;2023-12-22T10:53:59;3.23;;;1.73;;
3911;SDS011;1971;51.778;10.330;2023-12-22T10:56:29;9.73;;;3.70;;
3911;SDS011;1971;51.778;10.330;2023-12-22T10:59:00;5.50;;;2.30;;
3911;SDS011;1971;51.778;10.330;2023-12-22T11:01:34;5.10;;;2.10;;
3911;SDS011;1971;51.778;10.330;2023-12-22T11:04:09;6.30;;;2.70;;
3911;SDS011;1971;51.778;10.330;2023-12-22T11:06:57;9.30;;;2.23;;
3911;SDS011;1971;51.778;10.330;2023-12-22T11:09:33;10.43;;;3.10;;
3911;SDS011;1971;51.778;10.330;2023-12-22T11:12:08;4.50;;;2.70;;
3911;SDS011;1971;51.778;10.330;2023-12-22T11:14:44;7.03;;;1.60;;
3911;SDS011;1971;51.778;10.330;2023-12-22T11:17:24;5.50;;;2.20;;
3911;SDS011;1971;51.778;10.330;2023-12-22T11:20:14;3.20;;;1.40;;
3911;SDS011;1971;51.778;10.330;2023-12-22T11:23:26;4.10;;;1.60;;
3911;SDS011;1971;51.778;10.330;2023-12-22T11:26:09;9.20;;;1.90;;
3911;SDS011;1971;51.778;10.330;2023-12-22T11:29:28;5.90;;;1.67;;
3911;SDS011;1971;51.778;10.330;2023-12-22T11:32:02;3.77;;;1.30;;
3911;SDS011;1971;51.778;10.330;2023-12-22T11:34:44;8.57;;;1.83;;
3911;SDS011;1971;51.778;10.330;2023-12-22T11:37:15;3.87;;;1.30;;
3911;SDS011;1971;51.778;10.330;2023-12-22T11:39:48;5.53;;;2.60;;
3911;SDS011;1971;51.778;10.330;2023-12-22T11:42:17;4.73;;;2.80;;
3911;SDS011;1971;51.778;10.330;2023-12-22T11:44:52;3.03;;;1.50;;
3911;SDS011;1971;51.778;10.330;2023-12-22T11:47:22;3.30;;;1.67;;
3911;SDS011;1971;51.778;10.330;2023-12-22T11:49:53;5.90;;;2.30;;
3911;SDS011;1971;51.778;10.330;2023-12-22T11:52:25;4.73;;;2.97;;
3911;SDS011;1971;51.778;10.330;2023-12-22T11:54:59;1.47;;;1.23;;
3911;SDS011;1971;51.778;10.330;2023-12-22T11:57:30;4.07;;;1.70;;
3911;SDS011;1971;51.778;10.330;2023-12-22T12:00:06;3.83;;;1.57;;
3911;SDS011;1971;51.778;10.330;2023-12-22T12:02:39;2.63;;;1.60;;
3911;SDS011;1971;51.778;10.330;2023-12-22T12:05:10;7.50;;;2.03;;
3911;SDS011;1971;51.778;10.330;2023-12-22T12:07:43;1.70;;;1.23;;
3911;SDS011;1971;51.778;10.330;2023-12-22T12:13:21;1.63;;;0.90;;
3911;SDS011;1971;51.778;10.330;2023-12-22T12:15:53;5.40;;;1.40;;
3911;SDS011;1971;51.778;10.330;2023-12-22T12:18:27;2.10;;;1.17;;
3911;SDS011;1971;51.778;10.330;2023-12-22T12:20:58;1.33;;;0.90;;
3911;SDS011;1971;51.778;10.330;2023-12-22T12:23:29;3.00;;;1.90;;
3911;SDS011;1971;51.778;10.330;2023-12-22T12:26:00;2.77;;;1.00;;
3911;SDS011;1971;51.778;10.330;2023-12-22T12:28:33;3.33;;;1.60;;
3911;SDS011;1971;51.778;10.330;2023-12-22T12:31:05;2.80;;;1.20;;
3911;SDS011;1971;51.778;10.330;2023-12-22T12:33:36;1.83;;;1.00;;
3911;SDS011;1971;51.778;10.330;2023-12-22T12:36:06;2.80;;;1.23;;
3911;SDS011;1971;51.778;10.330;2023-12-22T12:38:42;1.80;;;1.30;;
3911;SDS011;1971;51.778;10.330;2023-12-22T12:41:17;2.50;;;1.27;;
3911;SDS011;1971;51.778;10.330;2023-12-22T12:43:59;2.10;;;0.97;;
3911;SDS011;1971;51.778;10.330;2023-12-22T12:46:33;0.63;;;0.60;;
3911;SDS011;1971;51.778;10.330;2023-12-22T12:49:05;2.33;;;1.83;;
3911;SDS011;1971;51.778;10.330;2023-12-22T12:51:36;2.00;;;1.13;;
3911;SDS011;1971;51.778;10.330;2023-12-22T12:54:07;1.83;;;1.40;;
3911;SDS011;1971;51.778;10.330;2023-12-22T12:56:39;2.20;;;0.97;;
3911;SDS011;1971;51.778;10.330;2023-12-22T12:59:12;6.73;;;1.80;;
3911;SDS011;1971;51.778;10.330;2023-12-22T13:01:45;2.50;;;1.40;;
3911;SDS011;1971;51.778;10.330;2023-12-22T13:04:16;1.40;;;1.10;;
3911;SDS011;1971;51.778;10.330;2023-12-22T13:06:46;2.50;;;1.47;;
3911;SDS011;1971;51.778;10.330;2023-12-22T13:09:17;1.30;;;1.00;;
3911;SDS011;1971;51.778;10.330;2023-12-22T13:11:48;3.10;;;1.30;;
3911;SDS011;1971;51.778;10.330;2023-12-22T13:14:25;2.00;;;1.10;;
3911;SDS011;1971;51.778;10.330;2023-12-22T13:16:56;1.60;;;0.80;;
3911;SDS011;1971;51.778;10.330;2023-12-22T13:19:27;2.97;;;1.10;;
3911;SDS011;1971;51.778;10.330;2023-12-22T13:21:58;2.60;;;1.10;;
3911;SDS011;1971;51.778;10.330;2023-12-22T13:24:28;3.83;;;1.60;;
3911;SDS011;1971;51.778;10.330;2023-12-22T13:27:00;2.00;;;1.17;;
3911;SDS011;1971;51.778;10.330;2023-12-22T13:29:45;3.13;;;1.33;;
3911;SDS011;1971;51.778;10.330;2023-12-22T13:32:19;3.23;;;0.90;;
3911;SDS011;1971;51.778;10.330;2023-12-22T13:34:51;3.33;;;1.20;;
3911;SDS011;1971;51.778;10.330;2023-12-22T13:37:23;2.70;;;1.57;;
3911;SDS011;1971;51.778;10.330;2023-12-22T13:39:57;1.50;;;1.40;;
3911;SDS011;1971;51.778;10.330;2023-12-22T13:42:28;1.53;;;1.43;;
3911;SDS011;1971;51.778;10.330;2023-12-22T13:45:00;1.20;;;0.80;;
3911;SDS011;1971;51.778;10.330;2023-12-22T13:47:31;1.83;;;1.10;;
3911;SDS011;1971;51.778;10.330;2023-12-22T13:50:01;2.60;;;1.23;;
3911;SDS011;1971;51.778;10.330;2023-12-22T13:52:32;7.20;;;1.47;;
3911;SDS011;1971;51.778;10.330;2023-12-22T13:55:08;5.93;;;1.07;;
3911;SDS011;1971;51.778;10.330;2023-12-22T13:57:40;2.33;;;0.97;;
3911;SDS011;1971;51.778;10.330;2023-12-22T14:00:29;2.17;;;1.00;;
3911;SDS011;1971;51.778;10.330;2023-12-22T14:03:00;1.77;;;1.10;;
3911;SDS011;1971;51.778;10.330;2023-12-22T14:05:30;1.87;;;1.07;;
3911;SDS011;1971;51.778;10.330;2023-12-22T14:08:01;3.03;;;1.30;;
3911;SDS011;1971;51.778;10.330;2023-12-22T14:10:33;2.20;;;1.03;;
3911;SDS011;1971;51.778;10.330;2023-12-22T14:13:03;4.07;;;1.37;;
3911;SDS011;1971;51.778;10.330;2023-12-22T14:15:36;4.03;;;1.33;;
3911;SDS011;1971;51.778;10.330;2023-12-22T14:18:11;1.50;;;1.00;;
3911;SDS011;1971;51.778;10.330;2023-12-22T14:20:41;3.03;;;1.27;;
3911;SDS011;1971;51.778;10.330;2023-12-22T14:23:12;2.77;;;1.20;;
3911;SDS011;1971;51.778;10.330;2023-12-22T14:25:43;1.60;;;0.90;;
3911;SDS011;1971;51.778;10.330;2023-12-22T14:28:14;1.60;;;0.90;;
3911;SDS011;1971;51.778;10.330;2023-12-22T14:30:46;4.43;;;1.23;;
3911;SDS011;1971;51.778;10.330;2023-12-22T14:33:17;3.17;;;1.37;;
3911;SDS011;1971;51.778;10.330;2023-12-22T14:35:47;2.90;;;1.10;;
3911;SDS011;1971;51.778;10.330;2023-12-22T14:38:17;3.27;;;0.97;;
3911;SDS011;1971;51.778;10.330;2023-12-22T14:40:47;1.80;;;1.17;;
3911;SDS011;1971;51.778;10.330;2023-12-22T14:43:17;3.07;;;1.33;;
3911;SDS011;1971;51.778;10.330;2023-12-22T14:45:50;1.43;;;1.00;;
3911;SDS011;1971;51.778;10.330;2023-12-22T14:48:20;1.87;;;1.30;;
3911;SDS011;1971;51.778;10.330;2023-12-22T14:50:50;1.33;;;1.10;;
3911;SDS011;1971;51.778;10.330;2023-12-22T14:53:20;5.63;;;1.47;;
3911;SDS011;1971;51.778;10.330;2023-12-22T14:55:51;2.20;;;1.47;;
3911;SDS011;1971;51.778;10.330;2023-12-22T14:58:23;4.20;;;1.40;;
3911;SDS011;1971;51.778;10.330;2023-12-22T15:00:56;1.70;;;0.77;;
3911;SDS011;1971;51.778;10.330;2023-12-22T15:03:27;0.90;;;0.67;;
3911;SDS011;1971;51.778;10.330;2023-12-22T15:05:57;1.80;;;1.13;;
3911;SDS011;1971;51.778;10.330;2023-12-22T15:08:27;3.53;;;1.50;;
3911;SDS011;1971;51.778;10.330;2023-12-22T15:11:00;1.73;;;1.00;;
3911;SDS011;1971;51.778;10.330;2023-12-22T15:13:30;1.13;;;0.90;;
3911;SDS011;1971;51.778;10.330;2023-12-22T15:16:06;0.80;;;0.77;;
3911;SDS011;1971;51.778;10.330;2023-12-22T15:18:37;2.20;;;0.97;;
3911;SDS011;1971;51.778;10.330;2023-12-22T15:21:07;3.60;;;1.23;;
3911;SDS011;1971;51.778;10.330;2023-12-22T15:23:39;2.53;;;1.13;;
3911;SDS011;1971;51.778;10.330;2023-12-22T15:26:19;0.70;;;0.60;;
3911;SDS011;1971;51.778;10.330;2023-12-22T15:28:52;1.37;;;1.00;;
3911;SDS011;1971;51.778;10.330;2023-12-22T15:31:25;1.10;;;0.70;;
3911;SDS011;1971;51.778;10.330;2023-12-22T15:33:57;1.50;;;0.80;;
3911;SDS011;1971;51.778;10.330;2023-12-22T15:36:27;1.43;;;1.10;;
3911;SDS011;1971;51.778;10.330;2023-12-22T15:38:58;1.00;;;0.63;;
3911;SDS011;1971;51.778;10.330;2023-12-22T15:41:28;2.30;;;0.70;;
3911;SDS011;1971;51.778;10.330;2023-12-22T15:43:59;0.87;;;0.87;;
3911;SDS011;1971;51.778;10.330;2023-12-22T15:46:32;2.23;;;0.90;;
3911;SDS011;1971;51.778;10.330;2023-12-22T15:49:02;0.87;;;0.87;;
3911;SDS011;1971;51.778;10.330;2023-12-22T15:51:32;1.33;;;0.97;;
3911;SDS011;1971;51.778;10.330;2023-12-22T15:54:03;1.20;;;0.70;;
3911;SDS011;1971;51.778;10.330;2023-12-22T15:56:34;0.80;;;0.80;;
3911;SDS011;1971;51.778;10.330;2023-12-22T15:59:04;0.60;;;0.60;;
3911;SDS011;1971;51.778;10.330;2023-12-22T16:01:37;1.53;;;1.23;;
3911;SDS011;1971;51.778;10.330;2023-12-22T16:04:11;0.80;;;0.80;;
3911;SDS011;1971;51.778;10.330;2023-12-22T16:06:41;0.60;;;0.60;;
3911;SDS011;1971;51.778;10.330;2023-12-22T16:09:12;1.67;;;1.57;;
3911;SDS011;1971;51.778;10.330;2023-12-22T16:11:42;0.77;;;0.77;;
3911;SDS011;1971;51.778;10.330;2023-12-22T16:14:12;0.80;;;0.80;;
3911;SDS011;1971;51.778;10.330;2023-12-22T16:16:45;1.20;;;0.97;;
3911;SDS011;1971;51.778;10.330;2023-12-22T16:19:15;1.07;;;0.90;;
3911;SDS011;1971;51.778;10.330;2023-12-22T16:21:45;1.70;;;1.60;;
3911;SDS011;1971;51.778;10.330;2023-12-22T16:24:19;0.93;;;0.93;;
3911;SDS011;1971;51.778;10.330;2023-12-22T16:26:54;1.93;;;1.00;;
3911;SDS011;1971;51.778;10.330;2023-12-22T16:29:24;1.43;;;1.23;;
3911;SDS011;1971;51.778;10.330;2023-12-22T16:31:57;1.13;;;1.07;;
3911;SDS011;1971;51.778;10.330;2023-12-22T16:34:27;1.83;;;1.73;;
3911;SDS011;1971;51.778;10.330;2023-12-22T16:37:00;1.27;;;0.90;;
3911;SDS011;1971;51.778;10.330;2023-12-22T16:39:30;1.40;;;1.30;;
3911;SDS011;1971;51.778;10.330;2023-12-22T16:42:04;1.60;;;1.50;;
3911;SDS011;1971;51.778;10.330;2023-12-22T16:44:36;2.23;;;2.03;;
3911;SDS011;1971;51.778;10.330;2023-12-22T16:47:09;2.03;;;1.93;;
3911;SDS011;1971;51.778;10.330;2023-12-22T16:49:40;2.50;;;1.83;;
3911;SDS011;1971;51.778;10.330;2023-12-22T16:52:12;1.00;;;1.00;;
3911;SDS011;1971;51.778;10.330;2023-12-22T16:54:43;1.93;;;1.83;;
3911;SDS011;1971;51.778;10.330;2023-12-22T16:57:13;1.17;;;1.10;;
3911;SDS011;1971;51.778;10.330;2023-12-22T16:59:43;1.80;;;1.17;;
3911;SDS011;1971;51.778;10.330;2023-12-22T17:02:16;2.00;;;1.80;;
3911;SDS011;1971;51.778;10.330;2023-12-22T17:04:51;1.50;;;1.40;;
3911;SDS011;1971;51.778;10.330;2023-12-22T17:07:24;1.07;;;1.00;;
3911;SDS011;1971;51.778;10.330;2023-12-22T17:10:02;1.13;;;1.13;;
3911;SDS011;1971;51.778;10.330;2023-12-22T17:12:34;1.33;;;1.03;;
3911;SDS011;1971;51.778;10.330;2023-12-22T17:15:04;0.60;;;0.60;;
3911;SDS011;1971;51.778;10.330;2023-12-22T17:17:39;1.40;;;1.30;;